sensor_id;sensor_type;location;lat;lon;timestamp;pressure;altitude;pressure_sealevel;temperature;humidity
20027;BME280;10174;42.688;23.344;2022-10-16T00:02:17;95941.44;;;7.77;86.88
20027;BME280;10174;42.688;23.344;2022-10-16T00:04:43;95977.69;;;7.91;87.02
20027;BME280;10174;42.688;23.344;2022-10-16T00:07:08;95992.78;;;7.85;86.83
20027;BME280;10174;42.688;23.344;2022-10-16T00:09:33;95969.56;;;7.67;87.23
20027;BME280;10174;42.688;23.344;2022-10-16T00:11:59;95987.16;;;7.75;87.10
20027;BME280;10174;42.688;23.344;2022-10-16T00:14:24;95984.13;;;7.72;86.92
20027;BME280;10174;42.688;23.344;2022-10-16T00:16:50;95896.84;;;7.05;87.56
20027;BME280;10174;42.688;23.344;2022-10-16T00:19:15;95979.66;;;7.54;87.95
20027;BME280;10174;42.688;23.344;2022-10-16T00:21:41;95996.88;;;7.58;87.63
20027;BME280;10174;42.688;23.344;2022-10-16T00:24:08;96000.59;;;7.57;87.70
20027;BME280;10174;42.688;23.344;2022-10-16T00:26:35;95990.91;;;7.44;87.49
20027;BME280;10174;42.688;23.344;2022-10-16T00:29:02;95995.88;;;7.40;87.97
20027;BME280;10174;42.688;23.344;2022-10-16T00:31:27;96005.75;;;7.40;87.92
20027;BME280;10174;42.688;23.344;2022-10-16T00:33:53;96011.91;;;7.40;88.09
20027;BME280;10174;42.688;23.344;2022-10-16T00:36:21;96000.13;;;7.29;88.18
20027;BME280;10174;42.688;23.344;2022-10-16T00:38:50;96013.66;;;7.35;88.21
20027;BME280;10174;42.688;23.344;2022-10-16T00:41:18;95994.28;;;7.21;87.94
20027;BME280;10174;42.688;23.344;2022-10-16T00:43:46;96007.25;;;7.36;87.92
20027;BME280;10174;42.688;23.344;2022-10-16T00:48:55;96012.91;;;7.27;87.92
20027;BME280;10174;42.688;23.344;2022-10-16T00:51:25;96001.03;;;7.23;88.31
20027;BME280;10174;42.688;23.344;2022-10-16T00:53:53;95984.69;;;7.13;88.14
20027;BME280;10174;42.688;23.344;2022-10-16T00:56:19;96012.56;;;7.24;88.40
20027;BME280;10174;42.688;23.344;2022-10-16T00:58:45;95994.66;;;7.24;88.53
20027;BME280;10174;42.688;23.344;2022-10-16T01:01:10;96012.63;;;7.17;88.41
20027;BME280;10174;42.688;23.344;2022-10-16T01:03:36;96017.97;;;7.17;88.45
20027;BME280;10174;42.688;23.344;2022-10-16T01:09:06;96014.94;;;7.13;88.33
20027;BME280;10174;42.688;23.344;2022-10-16T01:11:48;96014.31;;;7.11;88.50
20027;BME280;10174;42.688;23.344;2022-10-16T01:14:22;96001.34;;;6.97;88.54
20027;BME280;10174;42.688;23.344;2022-10-16T01:16:55;96010.72;;;7.06;88.81
20027;BME280;10174;42.688;23.344;2022-10-16T01:19:50;96015.59;;;7.09;89.02
20027;BME280;10174;42.688;23.344;2022-10-16T01:22:24;96014.94;;;7.13;88.84
20027;BME280;10174;42.688;23.344;2022-10-16T01:24:53;95989.38;;;6.99;88.33
20027;BME280;10174;42.688;23.344;2022-10-16T01:27:21;96009.06;;;7.05;88.64
20027;BME280;10174;42.688;23.344;2022-10-16T01:30:04;96003.59;;;7.00;88.82
20027;BME280;10174;42.688;23.344;2022-10-16T01:32:42;95904.25;;;6.35;88.77
20027;BME280;10174;42.688;23.344;2022-10-16T01:40:26;95979.56;;;6.81;88.76
20027;BME280;10174;42.688;23.344;2022-10-16T01:42:56;95990.00;;;6.83;88.74
20027;BME280;10174;42.688;23.344;2022-10-16T01:45:25;95948.66;;;6.48;88.70
20027;BME280;10174;42.688;23.344;2022-10-16T01:47:53;96010.09;;;6.85;88.53
20027;BME280;10174;42.688;23.344;2022-10-16T01:50:20;95994.06;;;6.67;88.63
20027;BME280;10174;42.688;23.344;2022-10-16T01:52:48;96027.41;;;6.83;88.93
20027;BME280;10174;42.688;23.344;2022-10-16T01:55:21;96022.88;;;6.83;88.45
20027;BME280;10174;42.688;23.344;2022-10-16T01:57:49;96016.31;;;6.79;88.73
20027;BME280;10174;42.688;23.344;2022-10-16T02:00:16;95890.09;;;5.91;88.27
20027;BME280;10174;42.688;23.344;2022-10-16T02:02:45;96016.78;;;6.76;88.46
20027;BME280;10174;42.688;23.344;2022-10-16T02:05:21;96023.19;;;6.75;88.80
20027;BME280;10174;42.688;23.344;2022-10-16T02:07:49;96026.28;;;6.72;88.98
20027;BME280;10174;42.688;23.344;2022-10-16T02:10:15;96029.97;;;6.71;89.10
20027;BME280;10174;42.688;23.344;2022-10-16T02:12:55;96006.66;;;6.59;88.63
20027;BME280;10174;42.688;23.344;2022-10-16T02:15:22;96031.63;;;6.72;88.96
20027;BME280;10174;42.688;23.344;2022-10-16T02:17:48;96036.56;;;6.68;88.98
20027;BME280;10174;42.688;23.344;2022-10-16T02:20:13;96036.34;;;6.70;89.05
20027;BME280;10174;42.688;23.344;2022-10-16T02:22:43;96040.28;;;6.67;89.24
20027;BME280;10174;42.688;23.344;2022-10-16T02:25:29;96044.81;;;6.67;89.07
20027;BME280;10174;42.688;23.344;2022-10-16T02:28:22;96040.94;;;6.63;88.89
20027;BME280;10174;42.688;23.344;2022-10-16T02:30:56;96038.56;;;6.54;88.51
20027;BME280;10174;42.688;23.344;2022-10-16T02:33:23;96047.34;;;6.62;89.11
20027;BME280;10174;42.688;23.344;2022-10-16T02:35:50;96045.31;;;6.57;88.87
20027;BME280;10174;42.688;23.344;2022-10-16T02:38:17;96038.69;;;6.59;89.22
20027;BME280;10174;42.688;23.344;2022-10-16T02:40:44;96021.03;;;6.40;89.01
20027;BME280;10174;42.688;23.344;2022-10-16T02:43:10;96051.25;;;6.59;89.13
20027;BME280;10174;42.688;23.344;2022-10-16T02:45:36;96034.84;;;6.55;89.01
20027;BME280;10174;42.688;23.344;2022-10-16T02:48:01;96049.81;;;6.56;88.87
20027;BME280;10174;42.688;23.344;2022-10-16T02:50:27;96049.69;;;6.51;88.89
20027;BME280;10174;42.688;23.344;2022-10-16T02:52:52;96052.78;;;6.48;88.82
20027;BME280;10174;42.688;23.344;2022-10-16T02:55:18;95969.44;;;5.96;88.91
20027;BME280;10174;42.688;23.344;2022-10-16T02:57:43;96039.53;;;6.35;88.51
20027;BME280;10174;42.688;23.344;2022-10-16T03:00:11;96028.38;;;6.19;88.81
20027;BME280;10174;42.688;23.344;2022-10-16T03:02:37;95973.69;;;5.78;88.63
20027;BME280;10174;42.688;23.344;2022-10-16T03:05:03;96061.09;;;6.40;88.59
20027;BME280;10174;42.688;23.344;2022-10-16T03:07:29;95963.00;;;5.78;88.27
20027;BME280;10174;42.688;23.344;2022-10-16T03:09:54;96054.38;;;6.31;88.53
20027;BME280;10174;42.688;23.344;2022-10-16T03:12:20;96035.19;;;6.15;88.40
20027;BME280;10174;42.688;23.344;2022-10-16T03:14:46;96067.72;;;6.31;88.46
20027;BME280;10174;42.688;23.344;2022-10-16T03:17:12;96073.94;;;6.24;88.71
20027;BME280;10174;42.688;23.344;2022-10-16T03:19:38;96078.06;;;6.20;88.80
20027;BME280;10174;42.688;23.344;2022-10-16T03:22:03;96074.78;;;6.18;88.84
20027;BME280;10174;42.688;23.344;2022-10-16T03:24:29;96051.31;;;6.02;89.03
20027;BME280;10174;42.688;23.344;2022-10-16T03:26:54;96065.41;;;6.09;88.72
20027;BME280;10174;42.688;23.344;2022-10-16T03:29:20;96066.09;;;5.98;89.26
20027;BME280;10174;42.688;23.344;2022-10-16T03:31:45;96070.72;;;6.09;88.75
20027;BME280;10174;42.688;23.344;2022-10-16T03:34:10;96085.88;;;6.15;88.91
20027;BME280;10174;42.688;23.344;2022-10-16T03:36:36;96055.00;;;6.01;89.05
20027;BME280;10174;42.688;23.344;2022-10-16T03:39:02;96054.41;;;5.99;88.54
20027;BME280;10174;42.688;23.344;2022-10-16T03:41:27;96034.78;;;5.80;88.67
20027;BME280;10174;42.688;23.344;2022-10-16T03:43:53;96083.13;;;5.97;89.40
20027;BME280;10174;42.688;23.344;2022-10-16T03:46:18;96074.09;;;5.98;89.36
20027;BME280;10174;42.688;23.344;2022-10-16T03:48:44;96070.41;;;5.92;89.82
20027;BME280;10174;42.688;23.344;2022-10-16T03:51:09;96082.34;;;5.89;89.55
20027;BME280;10174;42.688;23.344;2022-10-16T03:53:34;96075.38;;;5.88;89.48
20027;BME280;10174;42.688;23.344;2022-10-16T03:56:00;96070.47;;;5.85;89.53
20027;BME280;10174;42.688;23.344;2022-10-16T03:58:25;96065.56;;;5.82;89.07
20027;BME280;10174;42.688;23.344;2022-10-16T04:00:51;96071.69;;;5.83;89.21
20027;BME280;10174;42.688;23.344;2022-10-16T04:03:16;96074.56;;;5.81;89.40
20027;BME280;10174;42.688;23.344;2022-10-16T04:05:44;96058.66;;;5.68;89.31
20027;BME280;10174;42.688;23.344;2022-10-16T04:08:09;96073.78;;;5.74;89.12
20027;BME280;10174;42.688;23.344;2022-10-16T04:10:34;96073.78;;;5.74;89.41
20027;BME280;10174;42.688;23.344;2022-10-16T04:13:00;96064.84;;;5.62;89.57
20027;BME280;10174;42.688;23.344;2022-10-16T04:15:25;96067.69;;;5.67;89.83
20027;BME280;10174;42.688;23.344;2022-10-16T04:17:51;96071.75;;;5.69;89.81
20027;BME280;10174;42.688;23.344;2022-10-16T04:20:18;96052.97;;;5.58;89.56
20027;BME280;10174;42.688;23.344;2022-10-16T04:22:43;96086.94;;;5.76;89.18
20027;BME280;10174;42.688;23.344;2022-10-16T04:25:09;96080.38;;;5.71;88.94
20027;BME280;10174;42.688;23.344;2022-10-16T04:27:34;96082.91;;;5.60;89.31
20027;BME280;10174;42.688;23.344;2022-10-16T04:29:59;96069.34;;;5.61;89.26
20027;BME280;10174;42.688;23.344;2022-10-16T04:32:26;96085.13;;;5.63;89.52
20027;BME280;10174;42.688;23.344;2022-10-16T04:34:51;96068.19;;;5.50;89.63
20027;BME280;10174;42.688;23.344;2022-10-16T04:37:17;96072.91;;;5.48;89.31
20027;BME280;10174;42.688;23.344;2022-10-16T04:39:42;96073.50;;;5.50;89.29
20027;BME280;10174;42.688;23.344;2022-10-16T04:42:08;96087.44;;;5.52;89.07
20027;BME280;10174;42.688;23.344;2022-10-16T04:44:34;96063.75;;;5.31;89.26
20027;BME280;10174;42.688;23.344;2022-10-16T04:46:59;96088.72;;;5.43;89.13
20027;BME280;10174;42.688;23.344;2022-10-16T04:49:25;96097.31;;;5.45;89.42
20027;BME280;10174;42.688;23.344;2022-10-16T04:51:50;96093.66;;;5.40;89.44
20027;BME280;10174;42.688;23.344;2022-10-16T04:54:15;96103.84;;;5.49;89.57
20027;BME280;10174;42.688;23.344;2022-10-16T04:56:41;95998.75;;;4.87;89.78
20027;BME280;10174;42.688;23.344;2022-10-16T04:59:14;96090.19;;;5.39;89.00
20027;BME280;10174;42.688;23.344;2022-10-16T05:01:39;96112.06;;;5.55;89.67
20027;BME280;10174;42.688;23.344;2022-10-16T05:04:05;96122.06;;;5.59;89.34
20027;BME280;10174;42.688;23.344;2022-10-16T05:06:30;96099.38;;;5.43;89.21
20027;BME280;10174;42.688;23.344;2022-10-16T05:08:55;96105.06;;;5.53;89.51
20027;BME280;10174;42.688;23.344;2022-10-16T05:11:21;96122.69;;;5.61;89.11
20027;BME280;10174;42.688;23.344;2022-10-16T05:13:46;96133.28;;;5.68;88.91
20027;BME280;10174;42.688;23.344;2022-10-16T05:16:12;96123.84;;;5.72;89.18
20027;BME280;10174;42.688;23.344;2022-10-16T05:18:37;96130.38;;;5.83;89.61
20027;BME280;10174;42.688;23.344;2022-10-16T05:21:02;96129.94;;;5.93;89.27
20027;BME280;10174;42.688;23.344;2022-10-16T05:23:28;96143.03;;;5.94;88.96
20027;BME280;10174;42.688;23.344;2022-10-16T05:25:57;96135.63;;;5.96;89.02
20027;BME280;10174;42.688;23.344;2022-10-16T05:28:25;96112.69;;;5.88;89.06
20027;BME280;10174;42.688;23.344;2022-10-16T05:30:50;96134.38;;;6.05;89.15
20027;BME280;10174;42.688;23.344;2022-10-16T05:33:16;96121.69;;;6.01;89.18
20027;BME280;10174;42.688;23.344;2022-10-16T05:35:42;96112.28;;;5.92;89.78
20027;BME280;10174;42.688;23.344;2022-10-16T05:38:07;96135.53;;;6.16;89.44
20027;BME280;10174;42.688;23.344;2022-10-16T05:40:33;96145.19;;;6.17;90.07
20027;BME280;10174;42.688;23.344;2022-10-16T05:42:58;96134.53;;;6.17;89.46
20027;BME280;10174;42.688;23.344;2022-10-16T05:45:23;96144.97;;;6.19;89.65
20027;BME280;10174;42.688;23.344;2022-10-16T05:47:49;96144.94;;;6.26;89.98
20027;BME280;10174;42.688;23.344;2022-10-16T05:50:14;96133.03;;;6.21;89.67
20027;BME280;10174;42.688;23.344;2022-10-16T05:52:40;96122.38;;;6.21;89.18
20027;BME280;10174;42.688;23.344;2022-10-16T05:55:05;96137.44;;;6.41;89.19
20027;BME280;10174;42.688;23.344;2022-10-16T05:57:31;96155.00;;;6.55;88.67
20027;BME280;10174;42.688;23.344;2022-10-16T05:59:56;96056.03;;;6.00;88.57
20027;BME280;10174;42.688;23.344;2022-10-16T06:02:22;96171.09;;;6.74;88.24
20027;BME280;10174;42.688;23.344;2022-10-16T06:04:47;96167.91;;;6.84;88.18
20027;BME280;10174;42.688;23.344;2022-10-16T06:07:12;96176.91;;;6.89;87.67
20027;BME280;10174;42.688;23.344;2022-10-16T06:09:38;96176.38;;;7.06;87.27
20027;BME280;10174;42.688;23.344;2022-10-16T06:12:03;96171.19;;;7.11;87.13
20027;BME280;10174;42.688;23.344;2022-10-16T06:14:29;96175.06;;;7.15;86.55
20027;BME280;10174;42.688;23.344;2022-10-16T06:16:54;96177.88;;;7.20;85.53
20027;BME280;10174;42.688;23.344;2022-10-16T06:19:19;96173.50;;;7.26;85.69
20027;BME280;10174;42.688;23.344;2022-10-16T06:21:45;96186.50;;;7.22;85.20
20027;BME280;10174;42.688;23.344;2022-10-16T06:24:11;96189.69;;;7.31;85.41
20027;BME280;10174;42.688;23.344;2022-10-16T06:26:37;96154.78;;;7.07;85.02
20027;BME280;10174;42.688;23.344;2022-10-16T06:29:02;96193.78;;;7.34;85.10
20027;BME280;10174;42.688;23.344;2022-10-16T06:31:28;96193.66;;;7.47;85.02
20027;BME280;10174;42.688;23.344;2022-10-16T06:33:56;96101.38;;;7.01;84.42
20027;BME280;10174;42.688;23.344;2022-10-16T06:36:23;96071.50;;;6.92;84.50
20027;BME280;10174;42.688;23.344;2022-10-16T06:38:49;96195.44;;;7.72;84.06
20027;BME280;10174;42.688;23.344;2022-10-16T06:41:17;96202.72;;;7.83;83.71
20027;BME280;10174;42.688;23.344;2022-10-16T06:43:43;96184.44;;;7.80;83.58
20027;BME280;10174;42.688;23.344;2022-10-16T06:46:11;96208.03;;;8.01;83.10
20027;BME280;10174;42.688;23.344;2022-10-16T06:48:37;96202.25;;;8.05;82.46
20027;BME280;10174;42.688;23.344;2022-10-16T06:53:31;96204.03;;;8.11;81.95
20027;BME280;10174;42.688;23.344;2022-10-16T06:55:57;96200.75;;;8.09;82.07
20027;BME280;10174;42.688;23.344;2022-10-16T06:58:23;96196.59;;;8.13;81.64
20027;BME280;10174;42.688;23.344;2022-10-16T07:00:49;96226.75;;;8.38;81.34
20027;BME280;10174;42.688;23.344;2022-10-16T07:03:19;96222.97;;;8.46;81.29
20027;BME280;10174;42.688;23.344;2022-10-16T07:05:45;96228.72;;;8.62;80.94
20027;BME280;10174;42.688;23.344;2022-10-16T07:08:10;96214.50;;;8.61;80.88
20027;BME280;10174;42.688;23.344;2022-10-16T07:10:36;96230.06;;;8.83;80.09
20027;BME280;10174;42.688;23.344;2022-10-16T07:13:01;96223.78;;;8.89;79.93
20027;BME280;10174;42.688;23.344;2022-10-16T07:15:27;96222.19;;;9.00;79.22
20027;BME280;10174;42.688;23.344;2022-10-16T07:17:53;96224.63;;;9.01;79.09
20027;BME280;10174;42.688;23.344;2022-10-16T07:20:19;96206.91;;;9.00;78.48
20027;BME280;10174;42.688;23.344;2022-10-16T07:22:45;96230.47;;;9.22;77.67
20027;BME280;10174;42.688;23.344;2022-10-16T07:25:10;96210.63;;;8.99;78.39
20027;BME280;10174;42.688;23.344;2022-10-16T07:27:36;96119.22;;;8.53;78.39
20027;BME280;10174;42.688;23.344;2022-10-16T07:30:02;96230.47;;;9.22;78.13
20027;BME280;10174;42.688;23.344;2022-10-16T07:32:28;96224.53;;;9.43;76.90
20027;BME280;10174;42.688;23.344;2022-10-16T07:34:54;96230.50;;;9.45;77.45
20027;BME280;10174;42.688;23.344;2022-10-16T07:37:21;96224.66;;;9.49;77.36
20027;BME280;10174;42.688;23.344;2022-10-16T07:39:46;96179.19;;;9.30;77.44
20027;BME280;10174;42.688;23.344;2022-10-16T07:42:11;96220.69;;;9.63;76.98
20027;BME280;10174;42.688;23.344;2022-10-16T07:44:37;96229.31;;;9.65;75.84
20027;BME280;10174;42.688;23.344;2022-10-16T07:47:02;96221.94;;;9.84;75.88
20027;BME280;10174;42.688;23.344;2022-10-16T07:49:28;96222.28;;;9.88;75.77
20027;BME280;10174;42.688;23.344;2022-10-16T07:51:53;96232.28;;;10.04;75.01
20027;BME280;10174;42.688;23.344;2022-10-16T07:54:18;96227.28;;;10.08;75.32
20027;BME280;10174;42.688;23.344;2022-10-16T07:56:44;96222.91;;;10.19;75.11
20027;BME280;10174;42.688;23.344;2022-10-16T07:59:09;96231.41;;;10.39;74.66
20027;BME280;10174;42.688;23.344;2022-10-16T08:01:35;96238.66;;;10.39;75.35
20027;BME280;10174;42.688;23.344;2022-10-16T08:04:00;96244.44;;;10.47;75.09
20027;BME280;10174;42.688;23.344;2022-10-16T08:06:26;96215.47;;;10.49;74.36
20027;BME280;10174;42.688;23.344;2022-10-16T08:08:51;96232.72;;;10.82;73.43
20027;BME280;10174;42.688;23.344;2022-10-16T08:11:17;96232.09;;;10.92;73.92
20027;BME280;10174;42.688;23.344;2022-10-16T08:13:42;96240.56;;;11.01;72.69
20027;BME280;10174;42.688;23.344;2022-10-16T08:16:08;96215.31;;;11.02;72.86
20027;BME280;10174;42.688;23.344;2022-10-16T08:18:36;96234.38;;;11.34;71.17
20027;BME280;10174;42.688;23.344;2022-10-16T08:21:02;96237.41;;;11.38;71.14
20027;BME280;10174;42.688;23.344;2022-10-16T08:23:28;96235.25;;;11.57;70.41
20027;BME280;10174;42.688;23.344;2022-10-16T08:25:54;96197.31;;;11.36;70.76
20027;BME280;10174;42.688;23.344;2022-10-16T08:28:20;96207.34;;;11.63;70.18
20027;BME280;10174;42.688;23.344;2022-10-16T08:30:46;96200.19;;;11.69;69.95
20027;BME280;10174;42.688;23.344;2022-10-16T08:33:11;96223.53;;;12.02;69.00
20027;BME280;10174;42.688;23.344;2022-10-16T08:35:37;96222.03;;;12.11;68.92
20027;BME280;10174;42.688;23.344;2022-10-16T08:38:06;96227.66;;;12.32;68.51
20027;BME280;10174;42.688;23.344;2022-10-16T08:40:32;96214.75;;;12.34;67.60
20027;BME280;10174;42.688;23.344;2022-10-16T08:48:52;96230.66;;;12.85;65.09
20027;BME280;10174;42.688;23.344;2022-10-16T08:51:25;96223.81;;;13.05;64.09
20027;BME280;10174;42.688;23.344;2022-10-16T08:53:55;96158.88;;;12.79;64.34
20027;BME280;10174;42.688;23.344;2022-10-16T08:56:22;96234.25;;;13.28;62.78
20027;BME280;10174;42.688;23.344;2022-10-16T08:58:48;96234.38;;;13.39;59.51
20027;BME280;10174;42.688;23.344;2022-10-16T09:01:16;96205.19;;;13.73;58.38
20027;BME280;10174;42.688;23.344;2022-10-16T09:06:45;96215.38;;;14.87;55.53
20027;BME280;10174;42.688;23.344;2022-10-16T09:11:51;96224.69;;;16.34;51.49
20027;BME280;10174;42.688;23.344;2022-10-16T09:19:58;96216.63;;;17.77;45.18
20027;BME280;10174;42.688;23.344;2022-10-16T09:22:27;96207.22;;;20.17;40.19
20027;BME280;10174;42.688;23.344;2022-10-16T09:25:10;96202.94;;;22.65;36.15
20027;BME280;10174;42.688;23.344;2022-10-16T09:27:36;96209.97;;;23.97;32.38
20027;BME280;10174;42.688;23.344;2022-10-16T09:30:13;96201.97;;;25.66;29.63
20027;BME280;10174;42.688;23.344;2022-10-16T09:32:40;96204.13;;;25.60;29.32
20027;BME280;10174;42.688;23.344;2022-10-16T09:35:14;96161.63;;;27.06;28.01
20027;BME280;10174;42.688;23.344;2022-10-16T09:37:42;96195.56;;;27.63;26.73
20027;BME280;10174;42.688;23.344;2022-10-16T09:40:13;96194.13;;;27.97;26.77
20027;BME280;10174;42.688;23.344;2022-10-16T09:42:38;96159.25;;;28.21;25.79
20027;BME280;10174;42.688;23.344;2022-10-16T09:45:04;96187.50;;;29.56;24.63
20027;BME280;10174;42.688;23.344;2022-10-16T09:47:31;96187.69;;;29.24;24.60
20027;BME280;10174;42.688;23.344;2022-10-16T09:50:14;96186.91;;;29.66;24.13
20027;BME280;10174;42.688;23.344;2022-10-16T09:52:44;96184.03;;;29.40;24.20
20027;BME280;10174;42.688;23.344;2022-10-16T09:55:15;96175.53;;;29.13;24.44
20027;BME280;10174;42.688;23.344;2022-10-16T09:57:54;96180.19;;;29.09;24.22
20027;BME280;10174;42.688;23.344;2022-10-16T10:00:20;96147.88;;;29.13;24.47
20027;BME280;10174;42.688;23.344;2022-10-16T10:02:46;96149.28;;;31.12;22.34
20027;BME280;10174;42.688;23.344;2022-10-16T10:05:38;96172.34;;;31.50;21.19
20027;BME280;10174;42.688;23.344;2022-10-16T10:08:04;96175.16;;;28.95;23.50
20027;BME280;10174;42.688;23.344;2022-10-16T10:10:34;96182.03;;;26.39;27.11
20027;BME280;10174;42.688;23.344;2022-10-16T10:13:02;96170.59;;;27.87;25.53
20027;BME280;10174;42.688;23.344;2022-10-16T10:15:33;96159.63;;;28.71;24.76
20027;BME280;10174;42.688;23.344;2022-10-16T10:18:00;96173.06;;;29.86;23.42
20027;BME280;10174;42.688;23.344;2022-10-16T10:20:33;96167.25;;;29.13;23.71
20027;BME280;10174;42.688;23.344;2022-10-16T10:23:00;96166.84;;;29.30;23.96
20027;BME280;10174;42.688;23.344;2022-10-16T10:25:41;96173.75;;;28.18;25.57
20027;BME280;10174;42.688;23.344;2022-10-16T10:36:09;96157.72;;;26.29;27.84
20027;BME280;10174;42.688;23.344;2022-10-16T10:46:42;96159.69;;;25.70;28.10
20027;BME280;10174;42.688;23.344;2022-10-16T10:57:34;96141.34;;;24.35;29.98
20027;BME280;10174;42.688;23.344;2022-10-16T11:00:30;96135.50;;;23.69;30.25
20027;BME280;10174;42.688;23.344;2022-10-16T11:06:18;96135.13;;;23.14;31.22
20027;BME280;10174;42.688;23.344;2022-10-16T11:08:51;96137.81;;;22.44;32.63
20027;BME280;10174;42.688;23.344;2022-10-16T11:11:26;96128.66;;;22.84;32.20
20027;BME280;10174;42.688;23.344;2022-10-16T11:19:28;96121.13;;;24.40;29.43
20027;BME280;10174;42.688;23.344;2022-10-16T11:27:23;96113.41;;;26.46;26.65
20027;BME280;10174;42.688;23.344;2022-10-16T11:29:57;96119.69;;;28.01;25.00
20027;BME280;10174;42.688;23.344;2022-10-16T11:32:28;96115.41;;;26.87;26.81
20027;BME280;10174;42.688;23.344;2022-10-16T11:35:08;96031.44;;;27.57;24.77
20027;BME280;10174;42.688;23.344;2022-10-16T11:37:41;96103.19;;;27.57;26.07
20027;BME280;10174;42.688;23.344;2022-10-16T11:40:21;96111.94;;;29.13;22.89
20027;BME280;10174;42.688;23.344;2022-10-16T11:43:00;96106.34;;;28.54;23.67
20027;BME280;10174;42.688;23.344;2022-10-16T11:45:42;96116.88;;;30.09;22.73
20027;BME280;10174;42.688;23.344;2022-10-16T11:48:21;96110.31;;;29.94;22.82
20027;BME280;10174;42.688;23.344;2022-10-16T11:51:05;96093.97;;;29.03;23.60
20027;BME280;10174;42.688;23.344;2022-10-16T11:56:17;96103.00;;;27.81;24.76
20027;BME280;10174;42.688;23.344;2022-10-16T12:01:22;96112.13;;;27.09;26.09
20027;BME280;10174;42.688;23.344;2022-10-16T12:07:07;96037.84;;;27.77;24.90
20027;BME280;10174;42.688;23.344;2022-10-16T12:09:34;96106.75;;;30.43;22.25
20027;BME280;10174;42.688;23.344;2022-10-16T12:12:01;96110.81;;;28.43;24.34
20027;BME280;10174;42.688;23.344;2022-10-16T12:17:01;96119.94;;;27.80;24.84
20027;BME280;10174;42.688;23.344;2022-10-16T12:19:31;96105.31;;;27.47;25.13
20027;BME280;10174;42.688;23.344;2022-10-16T12:21:59;96100.16;;;27.94;25.19
20027;BME280;10174;42.688;23.344;2022-10-16T12:24:37;96101.47;;;28.32;24.64
20027;BME280;10174;42.688;23.344;2022-10-16T12:27:06;96109.25;;;27.78;25.43
20027;BME280;10174;42.688;23.344;2022-10-16T12:32:04;96079.81;;;23.29;30.98
20027;BME280;10174;42.688;23.344;2022-10-16T12:34:41;96103.28;;;22.08;32.30
20027;BME280;10174;42.688;23.344;2022-10-16T12:37:22;96076.78;;;21.77;33.91
20027;BME280;10174;42.688;23.344;2022-10-16T12:39:49;96108.22;;;21.03;35.63
20027;BME280;10174;42.688;23.344;2022-10-16T12:44:53;96119.69;;;20.55;37.41
20027;BME280;10174;42.688;23.344;2022-10-16T12:47:35;96100.16;;;20.25;37.16
20027;BME280;10174;42.688;23.344;2022-10-16T12:50:01;96084.41;;;19.94;37.50
20027;BME280;10174;42.688;23.344;2022-10-16T12:52:36;96118.25;;;20.07;37.48
20027;BME280;10174;42.688;23.344;2022-10-16T12:55:04;96097.56;;;19.92;37.59
20027;BME280;10174;42.688;23.344;2022-10-16T12:58:23;96107.81;;;19.67;38.96
20027;BME280;10174;42.688;23.344;2022-10-16T13:03:31;96124.94;;;19.40;38.47
20027;BME280;10174;42.688;23.344;2022-10-16T13:06:13;96047.38;;;18.91;38.07
20027;BME280;10174;42.688;23.344;2022-10-16T13:20:19;96128.56;;;19.35;37.65
20027;BME280;10174;42.688;23.344;2022-10-16T13:23:19;96120.06;;;19.23;39.10
20027;BME280;10174;42.688;23.344;2022-10-16T13:28:35;96079.19;;;19.09;39.15
20027;BME280;10174;42.688;23.344;2022-10-16T13:31:03;96108.53;;;19.12;38.05
20027;BME280;10174;42.688;23.344;2022-10-16T13:33:36;96119.81;;;19.05;38.46
20027;BME280;10174;42.688;23.344;2022-10-16T13:36:04;96123.94;;;18.84;38.81
20027;BME280;10174;42.688;23.344;2022-10-16T13:38:35;96117.25;;;18.76;39.30
20027;BME280;10174;42.688;23.344;2022-10-16T13:43:34;96136.59;;;18.75;38.48
20027;BME280;10174;42.688;23.344;2022-10-16T13:46:03;96072.25;;;18.46;39.03
20027;BME280;10174;42.688;23.344;2022-10-16T13:48:29;96130.72;;;18.86;38.11
20027;BME280;10174;42.688;23.344;2022-10-16T13:51:06;96136.75;;;18.64;37.15
20027;BME280;10174;42.688;23.344;2022-10-16T13:53:34;96126.69;;;18.65;37.28
20027;BME280;10174;42.688;23.344;2022-10-16T13:56:02;96136.81;;;18.59;37.58
20027;BME280;10174;42.688;23.344;2022-10-16T13:58:28;96121.09;;;18.37;37.19
20027;BME280;10174;42.688;23.344;2022-10-16T14:00:56;96126.16;;;18.44;37.13
20027;BME280;10174;42.688;23.344;2022-10-16T14:03:22;96038.34;;;17.81;36.90
20027;BME280;10174;42.688;23.344;2022-10-16T14:05:53;96137.91;;;18.20;36.60
20027;BME280;10174;42.688;23.344;2022-10-16T14:08:20;96138.66;;;18.02;36.92
20027;BME280;10174;42.688;23.344;2022-10-16T14:10:51;96016.91;;;17.07;37.46
20027;BME280;10174;42.688;23.344;2022-10-16T14:13:25;96088.28;;;17.37;37.52
20027;BME280;10174;42.688;23.344;2022-10-16T14:15:52;96097.44;;;17.46;37.57
20027;BME280;10174;42.688;23.344;2022-10-16T14:18:24;96136.38;;;17.85;37.27
20027;BME280;10174;42.688;23.344;2022-10-16T14:20:51;96143.09;;;17.68;37.74
20027;BME280;10174;42.688;23.344;2022-10-16T14:25:51;96148.78;;;17.72;38.36
20027;BME280;10174;42.688;23.344;2022-10-16T14:28:21;96151.91;;;17.84;37.94
20027;BME280;10174;42.688;23.344;2022-10-16T14:30:50;96148.66;;;17.82;37.40
20027;BME280;10174;42.688;23.344;2022-10-16T14:33:32;96110.94;;;17.51;38.05
20027;BME280;10174;42.688;23.344;2022-10-16T14:36:02;96151.44;;;17.77;37.46
20027;BME280;10174;42.688;23.344;2022-10-16T14:38:29;96133.72;;;17.55;38.31
20027;BME280;10174;42.688;23.344;2022-10-16T14:40:57;96164.09;;;17.62;37.92
20027;BME280;10174;42.688;23.344;2022-10-16T14:43:37;96160.94;;;17.50;37.53
20027;BME280;10174;42.688;23.344;2022-10-16T14:46:15;96096.19;;;17.04;38.01
20027;BME280;10174;42.688;23.344;2022-10-16T14:48:49;96102.19;;;17.01;37.74
20027;BME280;10174;42.688;23.344;2022-10-16T14:51:17;96165.91;;;17.43;37.82